sensor_id;sensor_type;location;lat;lon;timestamp;temperature;humidity
75357;HTU21D;63946;51.986;5.930;2024-03-23T00:53:23;9.52;76.68
75357;HTU21D;63946;51.986;5.930;2024-03-23T00:55:49;9.52;76.68
75357;HTU21D;63946;51.986;5.930;2024-03-23T00:58:16;9.51;76.73
75357;HTU21D;63946;51.986;5.930;2024-03-23T01:00:42;9.48;76.68
75357;HTU21D;63946;51.986;5.930;2024-03-23T01:03:08;9.40;76.78
75357;HTU21D;63946;51.986;5.930;2024-03-23T01:05:34;9.37;76.83
75357;HTU21D;63946;51.986;5.930;2024-03-23T01:08:00;9.35;76.79
75357;HTU21D;63946;51.986;5.930;2024-03-23T01:10:26;9.31;76.73
75357;HTU21D;63946;51.986;5.930;2024-03-23T01:12:53;9.29;76.81
75357;HTU21D;63946;51.986;5.930;2024-03-23T01:15:19;9.29;76.75
75357;HTU21D;63946;51.986;5.930;2024-03-23T01:17:45;9.27;76.73
75357;HTU21D;63946;51.986;5.930;2024-03-23T01:20:11;9.27;76.76
75357;HTU21D;63946;51.986;5.930;2024-03-23T01:22:37;9.26;76.84
75357;HTU21D;63946;51.986;5.930;2024-03-23T01:25:05;9.25;76.89
75357;HTU21D;63946;51.986;5.930;2024-03-23T01:27:31;9.24;76.91
75357;HTU21D;63946;51.986;5.930;2024-03-23T01:29:57;9.25;76.95
75357;HTU21D;63946;51.986;5.930;2024-03-23T01:32:23;9.27;76.92
75357;HTU21D;63946;51.986;5.930;2024-03-23T01:34:49;9.29;76.85
75357;HTU21D;63946;51.986;5.930;2024-03-23T01:37:15;9.26;76.71
75357;HTU21D;63946;51.986;5.930;2024-03-23T01:39:42;9.24;76.70
75357;HTU21D;63946;51.986;5.930;2024-03-23T01:42:08;9.24;76.83
75357;HTU21D;63946;51.986;5.930;2024-03-23T01:44:34;9.22;76.76
75357;HTU21D;63946;51.986;5.930;2024-03-23T01:47:00;9.20;76.84
75357;HTU21D;63946;51.986;5.930;2024-03-23T01:49:26;9.19;76.82
75357;HTU21D;63946;51.986;5.930;2024-03-23T01:51:53;9.17;76.77
75357;HTU21D;63946;51.986;5.930;2024-03-23T01:54:19;9.19;76.78
75357;HTU21D;63946;51.986;5.930;2024-03-23T01:56:45;9.19;76.75
75357;HTU21D;63946;51.986;5.930;2024-03-23T01:59:11;9.20;76.70
75357;HTU21D;63946;51.986;5.930;2024-03-23T02:01:37;9.21;76.74
75357;HTU21D;63946;51.986;5.930;2024-03-23T02:04:04;9.23;76.64
75357;HTU21D;63946;51.986;5.930;2024-03-23T02:06:30;9.22;76.65
75357;HTU21D;63946;51.986;5.930;2024-03-23T02:08:56;9.20;76.70
75357;HTU21D;63946;51.986;5.930;2024-03-23T02:11:23;9.18;76.64
75357;HTU21D;63946;51.986;5.930;2024-03-23T02:13:49;9.17;76.75
75357;HTU21D;63946;51.986;5.930;2024-03-23T02:16:15;9.19;76.70
75357;HTU21D;63946;51.986;5.930;2024-03-23T02:18:42;9.18;76.72
75357;HTU21D;63946;51.986;5.930;2024-03-23T02:21:08;9.17;76.75
75357;HTU21D;63946;51.986;5.930;2024-03-23T02:23:34;9.17;76.72
75357;HTU21D;63946;51.986;5.930;2024-03-23T02:26:00;9.18;76.67
75357;HTU21D;63946;51.986;5.930;2024-03-23T02:28:26;9.12;76.75
75357;HTU21D;63946;51.986;5.930;2024-03-23T02:30:52;9.11;76.79
75357;HTU21D;63946;51.986;5.930;2024-03-23T02:33:18;9.10;76.77
75357;HTU21D;63946;51.986;5.930;2024-03-23T02:35:45;9.09;76.70
75357;HTU21D;63946;51.986;5.930;2024-03-23T02:38:11;9.06;76.70
75357;HTU21D;63946;51.986;5.930;2024-03-23T02:40:37;9.05;76.75
75357;HTU21D;63946;51.986;5.930;2024-03-23T02:43:04;8.97;76.74
75357;HTU21D;63946;51.986;5.930;2024-03-23T02:45:30;8.93;76.88
75357;HTU21D;63946;51.986;5.930;2024-03-23T02:47:56;8.92;76.91
75357;HTU21D;63946;51.986;5.930;2024-03-23T02:50:22;8.88;76.89
75357;HTU21D;63946;51.986;5.930;2024-03-23T02:52:49;8.85;76.95
75357;HTU21D;63946;51.986;5.930;2024-03-23T02:55:15;8.78;77.15
75357;HTU21D;63946;51.986;5.930;2024-03-23T02:57:42;8.77;77.08
75357;HTU21D;63946;51.986;5.930;2024-03-23T03:00:08;8.74;77.07
75357;HTU21D;63946;51.986;5.930;2024-03-23T07:53:48;8.83;71.93
75357;HTU21D;63946;51.986;5.930;2024-03-23T07:56:15;8.88;71.78
75357;HTU21D;63946;51.986;5.930;2024-03-23T07:58:42;8.94;71.62
75357;HTU21D;63946;51.986;5.930;2024-03-23T08:01:10;9.04;71.39
75357;HTU21D;63946;51.986;5.930;2024-03-23T08:03:37;9.14;71.00
75357;HTU21D;63946;51.986;5.930;2024-03-23T08:06:12;9.29;70.68
75357;HTU21D;63946;51.986;5.930;2024-03-23T08:08:39;9.39;70.50
75357;HTU21D;63946;51.986;5.930;2024-03-23T08:11:06;9.52;70.10
75357;HTU21D;63946;51.986;5.930;2024-03-23T08:13:32;9.60;70.05
75357;HTU21D;63946;51.986;5.930;2024-03-23T08:16:00;9.62;70.02
75357;HTU21D;63946;51.986;5.930;2024-03-23T08:18:26;9.60;69.83
75357;HTU21D;63946;51.986;5.930;2024-03-23T08:23:27;9.61;69.52
75357;HTU21D;63946;51.986;5.930;2024-03-23T08:26:04;9.62;69.19
75357;HTU21D;63946;51.986;5.930;2024-03-23T08:28:30;9.65;69.25
75357;HTU21D;63946;51.986;5.930;2024-03-23T08:30:57;9.69;69.09
75357;HTU21D;63946;51.986;5.930;2024-03-23T08:33:23;9.79;68.36
75357;HTU21D;63946;51.986;5.930;2024-03-23T08:36:00;9.78;67.61
75357;HTU21D;63946;51.986;5.930;2024-03-23T08:38:27;9.92;67.48
75357;HTU21D;63946;51.986;5.930;2024-03-23T08:41:04;9.96;67.33
75357;HTU21D;63946;51.986;5.930;2024-03-23T08:43:32;9.89;67.16
75357;HTU21D;63946;51.986;5.930;2024-03-23T08:46:05;9.88;67.05
75357;HTU21D;63946;51.986;5.930;2024-03-23T08:48:31;9.86;67.01
75357;HTU21D;63946;51.986;5.930;2024-03-23T08:51:03;9.95;66.89
75357;HTU21D;63946;51.986;5.930;2024-03-23T08:53:30;10.05;66.36
75357;HTU21D;63946;51.986;5.930;2024-03-23T08:55:57;10.06;66.07
75357;HTU21D;63946;51.986;5.930;2024-03-23T08:58:25;10.07;65.88
75357;HTU21D;63946;51.986;5.930;2024-03-23T09:00:55;10.07;65.43
75357;HTU21D;63946;51.986;5.930;2024-03-23T09:03:25;10.01;65.25
75357;HTU21D;63946;51.986;5.930;2024-03-23T09:05:52;9.91;65.40
75357;HTU21D;63946;51.986;5.930;2024-03-23T09:08:18;9.82;65.21
75357;HTU21D;63946;51.986;5.930;2024-03-23T09:10:45;9.68;65.50
75357;HTU21D;63946;51.986;5.930;2024-03-23T09:13:11;9.50;65.95
75357;HTU21D;63946;51.986;5.930;2024-03-23T09:15:45;9.31;66.56
75357;HTU21D;63946;51.986;5.930;2024-03-23T09:18:11;9.19;67.04
75357;HTU21D;63946;51.986;5.930;2024-03-23T09:20:40;9.12;67.27
75357;HTU21D;63946;51.986;5.930;2024-03-23T09:23:06;9.08;67.68
75357;HTU21D;63946;51.986;5.930;2024-03-23T09:25:36;9.05;67.90
75357;HTU21D;63946;51.986;5.930;2024-03-23T09:28:02;8.93;67.57
75357;HTU21D;63946;51.986;5.930;2024-03-23T09:30:28;8.83;67.61
75357;HTU21D;63946;51.986;5.930;2024-03-23T09:32:54;9.03;67.44
75357;HTU21D;63946;51.986;5.930;2024-03-23T09:35:20;9.39;66.88
75357;HTU21D;63946;51.986;5.930;2024-03-23T09:37:46;9.68;66.36
75357;HTU21D;63946;51.986;5.930;2024-03-23T09:40:13;9.93;65.88
75357;HTU21D;63946;51.986;5.930;2024-03-23T09:42:40;10.14;65.44
75357;HTU21D;63946;51.986;5.930;2024-03-23T09:45:06;10.29;64.95
75357;HTU21D;63946;51.986;5.930;2024-03-23T09:47:35;10.48;64.82
75357;HTU21D;63946;51.986;5.930;2024-03-23T09:50:03;10.67;64.43
75357;HTU21D;63946;51.986;5.930;2024-03-23T09:52:29;10.80;63.87
75357;HTU21D;63946;51.986;5.930;2024-03-23T09:54:59;10.83;63.01
75357;HTU21D;63946;51.986;5.930;2024-03-23T09:57:25;10.92;62.82
75357;HTU21D;63946;51.986;5.930;2024-03-23T09:59:51;11.13;62.50
75357;HTU21D;63946;51.986;5.930;2024-03-23T10:02:17;11.45;62.25
75357;HTU21D;63946;51.986;5.930;2024-03-23T10:04:44;11.69;61.50
75357;HTU21D;63946;51.986;5.930;2024-03-23T10:07:20;11.86;61.23
75357;HTU21D;63946;51.986;5.930;2024-03-23T10:09:46;11.71;60.89
75357;HTU21D;63946;51.986;5.930;2024-03-23T10:12:14;11.32;60.79
75357;HTU21D;63946;51.986;5.930;2024-03-23T10:14:40;10.97;61.27
75357;HTU21D;63946;51.986;5.930;2024-03-23T10:17:18;10.58;61.82
75357;HTU21D;63946;51.986;5.930;2024-03-23T10:19:44;10.36;62.95
75357;HTU21D;63946;51.986;5.930;2024-03-23T10:22:13;10.33;63.27
75357;HTU21D;63946;51.986;5.930;2024-03-23T10:24:43;10.28;62.33
75357;HTU21D;63946;51.986;5.930;2024-03-23T10:27:10;10.43;61.90
75357;HTU21D;63946;51.986;5.930;2024-03-23T10:29:40;10.69;61.41
75357;HTU21D;63946;51.986;5.930;2024-03-23T10:32:11;10.69;61.73
75357;HTU21D;63946;51.986;5.930;2024-03-23T10:34:38;10.62;61.78
75357;HTU21D;63946;51.986;5.930;2024-03-23T10:37:05;10.37;61.44
75357;HTU21D;63946;51.986;5.930;2024-03-23T10:39:37;9.90;62.33
75357;HTU21D;63946;51.986;5.930;2024-03-23T10:42:07;9.51;63.41
75357;HTU21D;63946;51.986;5.930;2024-03-23T10:44:34;9.25;64.27
75357;HTU21D;63946;51.986;5.930;2024-03-23T10:47:02;9.12;64.76
75357;HTU21D;63946;51.986;5.930;2024-03-23T10:49:32;9.37;64.82
75357;HTU21D;63946;51.986;5.930;2024-03-23T10:52:00;9.72;64.37
75357;HTU21D;63946;51.986;5.930;2024-03-23T10:54:32;10.11;63.91
75357;HTU21D;63946;51.986;5.930;2024-03-23T10:57:11;10.41;63.46
75357;HTU21D;63946;51.986;5.930;2024-03-23T10:59:39;10.52;62.75
75357;HTU21D;63946;51.986;5.930;2024-03-23T11:02:06;10.66;62.45
75357;HTU21D;63946;51.986;5.930;2024-03-23T11:04:40;10.79;61.83
75357;HTU21D;63946;51.986;5.930;2024-03-23T11:09:50;11.02;60.57
75357;HTU21D;63946;51.986;5.930;2024-03-23T11:15:04;11.13;59.85
75357;HTU21D;63946;51.986;5.930;2024-03-23T11:17:33;11.36;58.89
75357;HTU21D;63946;51.986;5.930;2024-03-23T11:20:03;11.37;58.04
75357;HTU21D;63946;51.986;5.930;2024-03-23T11:22:46;11.46;57.03
75357;HTU21D;63946;51.986;5.930;2024-03-23T11:25:17;11.68;56.46
75357;HTU21D;63946;51.986;5.930;2024-03-23T11:27:50;11.87;55.79
75357;HTU21D;63946;51.986;5.930;2024-03-23T11:30:18;12.08;55.87
75357;HTU21D;63946;51.986;5.930;2024-03-23T11:32:46;12.38;55.49
75357;HTU21D;63946;51.986;5.930;2024-03-23T11:35:45;12.55;55.63
75357;HTU21D;63946;51.986;5.930;2024-03-23T11:38:12;12.55;55.87
75357;HTU21D;63946;51.986;5.930;2024-03-23T11:40:44;12.33;55.88
75357;HTU21D;63946;51.986;5.930;2024-03-23T11:43:12;11.99;56.39
75357;HTU21D;63946;51.986;5.930;2024-03-23T11:45:42;11.60;57.47
75357;HTU21D;63946;51.986;5.930;2024-03-23T11:48:10;11.55;57.89
75357;HTU21D;63946;51.986;5.930;2024-03-23T11:50:39;11.76;57.88
75357;HTU21D;63946;51.986;5.930;2024-03-23T11:53:18;12.10;56.77
75357;HTU21D;63946;51.986;5.930;2024-03-23T11:55:52;12.29;55.98
75357;HTU21D;63946;51.986;5.930;2024-03-23T11:58:20;12.44;55.80
75357;HTU21D;63946;51.986;5.930;2024-03-23T12:00:56;12.47;55.66
75357;HTU21D;63946;51.986;5.930;2024-03-23T12:03:23;12.61;55.81
75357;HTU21D;63946;51.986;5.930;2024-03-23T12:05:52;12.58;55.92
75357;HTU21D;63946;51.986;5.930;2024-03-23T12:08:21;12.49;55.78
75357;HTU21D;63946;51.986;5.930;2024-03-23T12:10:49;12.34;55.59
75357;HTU21D;63946;51.986;5.930;2024-03-23T12:13:17;12.07;56.52
75357;HTU21D;63946;51.986;5.930;2024-03-23T12:15:44;11.85;56.54
75357;HTU21D;63946;51.986;5.930;2024-03-23T12:18:11;11.58;57.11
75357;HTU21D;63946;51.986;5.930;2024-03-23T12:20:38;11.37;57.44
75357;HTU21D;63946;51.986;5.930;2024-03-23T12:23:05;11.11;57.50
75357;HTU21D;63946;51.986;5.930;2024-03-23T12:25:32;10.83;57.45
75357;HTU21D;63946;51.986;5.930;2024-03-23T12:27:59;10.62;57.64
75357;HTU21D;63946;51.986;5.930;2024-03-23T12:30:25;10.62;57.84
75357;HTU21D;63946;51.986;5.930;2024-03-23T12:32:52;10.66;57.69
75357;HTU21D;63946;51.986;5.930;2024-03-23T12:35:18;10.63;57.26
75357;HTU21D;63946;51.986;5.930;2024-03-23T12:37:44;10.69;57.19
75357;HTU21D;63946;51.986;5.930;2024-03-23T12:40:10;10.83;57.19
75357;HTU21D;63946;51.986;5.930;2024-03-23T12:42:37;11.27;56.70
75357;HTU21D;63946;51.986;5.930;2024-03-23T12:45:04;11.68;56.13
75357;HTU21D;63946;51.986;5.930;2024-03-23T12:47:30;12.05;55.72
75357;HTU21D;63946;51.986;5.930;2024-03-23T12:49:56;12.42;54.71
75357;HTU21D;63946;51.986;5.930;2024-03-23T12:52:22;12.49;54.11
75357;HTU21D;63946;51.986;5.930;2024-03-23T12:54:49;12.31;54.12
75357;HTU21D;63946;51.986;5.930;2024-03-23T12:57:15;12.11;54.39
75357;HTU21D;63946;51.986;5.930;2024-03-23T12:59:41;11.82;54.87
75357;HTU21D;63946;51.986;5.930;2024-03-23T13:02:07;11.64;55.21
75357;HTU21D;63946;51.986;5.930;2024-03-23T13:04:33;11.53;55.45
75357;HTU21D;63946;51.986;5.930;2024-03-23T13:06:59;11.58;55.07
75357;HTU21D;63946;51.986;5.930;2024-03-23T13:09:25;11.53;54.80
75357;HTU21D;63946;51.986;5.930;2024-03-23T13:11:51;11.70;54.58
75357;HTU21D;63946;51.986;5.930;2024-03-23T13:14:18;11.90;53.99
75357;HTU21D;63946;51.986;5.930;2024-03-23T13:16:44;12.01;53.69
75357;HTU21D;63946;51.986;5.930;2024-03-23T13:19:10;12.04;52.94
75357;HTU21D;63946;51.986;5.930;2024-03-23T13:21:36;12.00;52.64
75357;HTU21D;63946;51.986;5.930;2024-03-23T13:24:02;11.91;52.88
75357;HTU21D;63946;51.986;5.930;2024-03-23T13:26:29;11.76;52.74
75357;HTU21D;63946;51.986;5.930;2024-03-23T13:28:55;11.63;52.89
75357;HTU21D;63946;51.986;5.930;2024-03-23T13:31:21;11.53;52.99
75357;HTU21D;63946;51.986;5.930;2024-03-23T13:33:47;11.37;53.20
75357;HTU21D;63946;51.986;5.930;2024-03-23T13:36:16;11.23;53.49
75357;HTU21D;63946;51.986;5.930;2024-03-23T13:38:42;11.08;53.99
75357;HTU21D;63946;51.986;5.930;2024-03-23T13:41:08;10.96;54.30
75357;HTU21D;63946;51.986;5.930;2024-03-23T13:43:34;10.97;53.98
75357;HTU21D;63946;51.986;5.930;2024-03-23T13:46:00;11.17;54.04
75357;HTU21D;63946;51.986;5.930;2024-03-23T13:48:27;11.38;53.86
75357;HTU21D;63946;51.986;5.930;2024-03-23T13:50:57;11.34;53.41
75357;HTU21D;63946;51.986;5.930;2024-03-23T13:53:23;11.23;53.95
75357;HTU21D;63946;51.986;5.930;2024-03-23T13:55:50;11.13;54.25
75357;HTU21D;63946;51.986;5.930;2024-03-23T13:58:16;11.04;54.44
75357;HTU21D;63946;51.986;5.930;2024-03-23T14:00:42;10.99;54.63
75357;HTU21D;63946;51.986;5.930;2024-03-23T14:03:09;10.88;54.77
75357;HTU21D;63946;51.986;5.930;2024-03-23T14:05:36;10.67;55.40
75357;HTU21D;63946;51.986;5.930;2024-03-23T14:08:04;10.46;56.08
75357;HTU21D;63946;51.986;5.930;2024-03-23T14:10:30;10.28;56.82
75357;HTU21D;63946;51.986;5.930;2024-03-23T14:12:59;10.18;57.47
75357;HTU21D;63946;51.986;5.930;2024-03-23T14:15:29;10.09;57.23
75357;HTU21D;63946;51.986;5.930;2024-03-23T14:17:56;10.11;57.22
75357;HTU21D;63946;51.986;5.930;2024-03-23T14:20:22;10.52;57.30
75357;HTU21D;63946;51.986;5.930;2024-03-23T14:22:50;10.83;56.96
75357;HTU21D;63946;51.986;5.930;2024-03-23T14:25:16;11.10;56.05
75357;HTU21D;63946;51.986;5.930;2024-03-23T14:27:46;11.14;55.20
75357;HTU21D;63946;51.986;5.930;2024-03-23T14:30:12;10.87;55.68
75357;HTU21D;63946;51.986;5.930;2024-03-23T14:32:39;10.66;56.50
75357;HTU21D;63946;51.986;5.930;2024-03-23T14:35:06;10.53;56.84
75357;HTU21D;63946;51.986;5.930;2024-03-23T14:37:33;10.46;56.69
75357;HTU21D;63946;51.986;5.930;2024-03-23T14:39:59;10.34;56.90
75357;HTU21D;63946;51.986;5.930;2024-03-23T14:42:25;10.11;56.92
75357;HTU21D;63946;51.986;5.930;2024-03-23T14:44:51;9.83;57.53
75357;HTU21D;63946;51.986;5.930;2024-03-23T14:47:18;9.66;58.16
75357;HTU21D;63946;51.986;5.930;2024-03-23T14:49:44;9.77;58.22
75357;HTU21D;63946;51.986;5.930;2024-03-23T14:52:11;9.98;58.25
75357;HTU21D;63946;51.986;5.930;2024-03-23T14:54:40;10.16;58.40
75357;HTU21D;63946;51.986;5.930;2024-03-23T14:57:07;10.15;58.50
75357;HTU21D;63946;51.986;5.930;2024-03-23T14:59:33;10.06;58.69
75357;HTU21D;63946;51.986;5.930;2024-03-23T15:01:59;9.92;58.59
75357;HTU21D;63946;51.986;5.930;2024-03-23T15:04:25;9.94;58.42
75357;HTU21D;63946;51.986;5.930;2024-03-23T15:06:51;9.85;58.47
75357;HTU21D;63946;51.986;5.930;2024-03-23T15:09:18;9.71;58.54
75357;HTU21D;63946;51.986;5.930;2024-03-23T15:11:44;9.61;58.61
75357;HTU21D;63946;51.986;5.930;2024-03-23T15:14:10;9.68;58.77
75357;HTU21D;63946;51.986;5.930;2024-03-23T15:16:37;9.91;58.25
75357;HTU21D;63946;51.986;5.930;2024-03-23T15:19:03;10.04;58.21
75357;HTU21D;63946;51.986;5.930;2024-03-23T15:21:29;10.28;58.16
75357;HTU21D;63946;51.986;5.930;2024-03-23T15:23:55;10.43;58.03
75357;HTU21D;63946;51.986;5.930;2024-03-23T15:26:21;10.53;57.87
75357;HTU21D;63946;51.986;5.930;2024-03-23T15:28:48;10.54;57.91
75357;HTU21D;63946;51.986;5.930;2024-03-23T15:31:20;10.60;57.48
75357;HTU21D;63946;51.986;5.930;2024-03-23T15:33:46;10.60;56.98
75357;HTU21D;63946;51.986;5.930;2024-03-23T15:36:15;10.62;56.71
75357;HTU21D;63946;51.986;5.930;2024-03-23T15:38:41;10.72;56.49
75357;HTU21D;63946;51.986;5.930;2024-03-23T15:41:08;10.73;56.42
75357;HTU21D;63946;51.986;5.930;2024-03-23T15:43:34;10.83;56.19
75357;HTU21D;63946;51.986;5.930;2024-03-23T15:46:02;10.88;55.83
75357;HTU21D;63946;51.986;5.930;2024-03-23T15:48:29;10.94;55.79
75357;HTU21D;63946;51.986;5.930;2024-03-23T15:51:00;10.99;55.81
75357;HTU21D;63946;51.986;5.930;2024-03-23T15:53:27;11.07;56.05
75357;HTU21D;63946;51.986;5.930;2024-03-23T15:56:00;11.07;55.93
75357;HTU21D;63946;51.986;5.930;2024-03-23T15:58:27;10.96;56.22
75357;HTU21D;63946;51.986;5.930;2024-03-23T16:00:57;10.94;55.93
75357;HTU21D;63946;51.986;5.930;2024-03-23T16:03:24;10.85;55.39
75357;HTU21D;63946;51.986;5.930;2024-03-23T16:05:54;10.79;55.19
75357;HTU21D;63946;51.986;5.930;2024-03-23T16:08:21;10.67;54.95
75357;HTU21D;63946;51.986;5.930;2024-03-23T16:10:48;10.57;55.02
75357;HTU21D;63946;51.986;5.930;2024-03-23T16:13:14;10.54;55.19
75357;HTU21D;63946;51.986;5.930;2024-03-23T16:15:40;10.54;55.38
75357;HTU21D;63946;51.986;5.930;2024-03-23T16:18:06;10.48;55.29
75357;HTU21D;63946;51.986;5.930;2024-03-23T16:20:33;10.48;55.58
75357;HTU21D;63946;51.986;5.930;2024-03-23T16:23:00;10.35;55.74
75357;HTU21D;63946;51.986;5.930;2024-03-23T16:25:26;10.12;56.20
75357;HTU21D;63946;51.986;5.930;2024-03-23T16:27:52;10.07;56.45
75357;HTU21D;63946;51.986;5.930;2024-03-23T16:30:19;10.08;56.70
75357;HTU21D;63946;51.986;5.930;2024-03-23T16:32:49;10.08;56.96
75357;HTU21D;63946;51.986;5.930;2024-03-23T16:35:15;10.04;56.97
75357;HTU21D;63946;51.986;5.930;2024-03-23T16:37:42;9.98;57.45
75357;HTU21D;63946;51.986;5.930;2024-03-23T16:40:08;9.93;57.73
75357;HTU21D;63946;51.986;5.930;2024-03-23T16:42:35;9.88;58.08
75357;HTU21D;63946;51.986;5.930;2024-03-23T16:45:02;9.75;58.23
75357;HTU21D;63946;51.986;5.930;2024-03-23T16:47:28;9.63;58.51
75357;HTU21D;63946;51.986;5.930;2024-03-23T16:49:54;9.52;58.74
75357;HTU21D;63946;51.986;5.930;2024-03-23T16:52:20;9.46;58.85
75357;HTU21D;63946;51.986;5.930;2024-03-23T16:54:47;9.39;59.19
75357;HTU21D;63946;51.986;5.930;2024-03-23T16:57:13;9.34;59.46
75357;HTU21D;63946;51.986;5.930;2024-03-23T16:59:39;9.30;59.67
75357;HTU21D;63946;51.986;5.930;2024-03-23T17:02:06;9.22;59.95
75357;HTU21D;63946;51.986;5.930;2024-03-23T17:04:32;9.10;60.25
75357;HTU21D;63946;51.986;5.930;2024-03-23T17:06:58;9.04;60.44
75357;HTU21D;63946;51.986;5.930;2024-03-23T17:09:24;8.97;60.54
75357;HTU21D;63946;51.986;5.930;2024-03-23T17:11:50;8.91;60.60
75357;HTU21D;63946;51.986;5.930;2024-03-23T17:14:16;8.78;60.70
75357;HTU21D;63946;51.986;5.930;2024-03-23T17:16:42;8.68;60.99
75357;HTU21D;63946;51.986;5.930;2024-03-23T17:19:08;8.73;61.02
75357;HTU21D;63946;51.986;5.930;2024-03-23T17:21:34;8.73;61.06
75357;HTU21D;63946;51.986;5.930;2024-03-23T17:24:01;8.75;61.07
75357;HTU21D;63946;51.986;5.930;2024-03-23T17:26:27;8.75;61.15
75357;HTU21D;63946;51.986;5.930;2024-03-23T17:28:53;8.73;61.29
75357;HTU21D;63946;51.986;5.930;2024-03-23T17:31:20;8.72;61.59
75357;HTU21D;63946;51.986;5.930;2024-03-23T17:33:50;8.65;62.34
75357;HTU21D;63946;51.986;5.930;2024-03-23T17:36:16;8.60;62.58
75357;HTU21D;63946;51.986;5.930;2024-03-23T17:38:45;8.48;63.04
75357;HTU21D;63946;51.986;5.930;2024-03-23T17:41:16;8.37;63.76
75357;HTU21D;63946;51.986;5.930;2024-03-23T17:43:48;8.27;64.41
75357;HTU21D;63946;51.986;5.930;2024-03-23T17:46:15;8.14;64.59
75357;HTU21D;63946;51.986;5.930;2024-03-23T17:48:41;7.97;64.59
75357;HTU21D;63946;51.986;5.930;2024-03-23T17:51:07;7.88;64.90
75357;HTU21D;63946;51.986;5.930;2024-03-23T17:53:40;7.89;65.14
75357;HTU21D;63946;51.986;5.930;2024-03-23T17:56:06;7.91;65.21
75357;HTU21D;63946;51.986;5.930;2024-03-23T17:58:33;7.92;65.25
75357;HTU21D;63946;51.986;5.930;2024-03-23T18:01:09;7.89;65.14
75357;HTU21D;63946;51.986;5.930;2024-03-23T18:03:38;7.78;65.40
75357;HTU21D;63946;51.986;5.930;2024-03-23T18:06:04;7.71;65.63
75357;HTU21D;63946;51.986;5.930;2024-03-23T18:08:30;7.62;65.84
75357;HTU21D;63946;51.986;5.930;2024-03-23T18:10:57;7.55;65.97
75357;HTU21D;63946;51.986;5.930;2024-03-23T18:13:27;7.46;66.31
75357;HTU21D;63946;51.986;5.930;2024-03-23T18:15:56;7.46;66.49
75357;HTU21D;63946;51.986;5.930;2024-03-23T18:18:22;7.34;66.76
75357;HTU21D;63946;51.986;5.930;2024-03-23T18:20:49;7.30;66.98
75357;HTU21D;63946;51.986;5.930;2024-03-23T18:23:15;7.27;67.20
75357;HTU21D;63946;51.986;5.930;2024-03-23T18:25:54;7.20;67.56
75357;HTU21D;63946;51.986;5.930;2024-03-23T18:28:23;7.17;67.64
75357;HTU21D;63946;51.986;5.930;2024-03-23T18:30:59;7.17;67.72
75357;HTU21D;63946;51.986;5.930;2024-03-23T18:33:27;7.12;67.81
75357;HTU21D;63946;51.986;5.930;2024-03-23T18:35:57;7.10;67.89
75357;HTU21D;63946;51.986;5.930;2024-03-23T18:38:23;7.03;68.16
75357;HTU21D;63946;51.986;5.930;2024-03-23T18:40:52;6.97;68.46
75357;HTU21D;63946;51.986;5.930;2024-03-23T18:43:18;6.97;68.62
75357;HTU21D;63946;51.986;5.930;2024-03-23T18:45:51;7.04;68.53
75357;HTU21D;63946;51.986;5.930;2024-03-23T18:48:17;7.09;68.35
75357;HTU21D;63946;51.986;5.930;2024-03-23T18:50:44;7.13;68.36
75357;HTU21D;63946;51.986;5.930;2024-03-23T18:53:10;7.12;68.46
75357;HTU21D;63946;51.986;5.930;2024-03-23T18:58:03;7.04;68.75
75357;HTU21D;63946;51.986;5.930;2024-03-23T19:00:30;7.02;68.68
75357;HTU21D;63946;51.986;5.930;2024-03-23T19:02:56;6.99;68.58
75357;HTU21D;63946;51.986;5.930;2024-03-23T19:05:23;7.00;68.51
75357;HTU21D;63946;51.986;5.930;2024-03-23T19:07:50;7.02;68.33
75357;HTU21D;63946;51.986;5.930;2024-03-23T19:10:16;7.05;68.34
75357;HTU21D;63946;51.986;5.930;2024-03-23T19:12:45;7.11;68.23
75357;HTU21D;63946;51.986;5.930;2024-03-23T19:15:11;7.17;68.13
75357;HTU21D;63946;51.986;5.930;2024-03-23T19:17:37;7.17;68.13
75357;HTU21D;63946;51.986;5.930;2024-03-23T19:20:07;7.14;68.22
75357;HTU21D;63946;51.986;5.930;2024-03-23T19:22:34;7.11;68.33
75357;HTU21D;63946;51.986;5.930;2024-03-23T19:25:00;7.04;68.43
75357;HTU21D;63946;51.986;5.930;2024-03-23T19:27:28;7.02;68.65
75357;HTU21D;63946;51.986;5.930;2024-03-23T19:29:57;7.04;68.60
75357;HTU21D;63946;51.986;5.930;2024-03-23T19:32:23;7.01;68.68
75357;HTU21D;63946;51.986;5.930;2024-03-23T19:34:49;7.01;68.68
75357;HTU21D;63946;51.986;5.930;2024-03-23T19:37:19;7.02;68.65
75357;HTU21D;63946;51.986;5.930;2024-03-23T19:39:45;7.00;68.65
75357;HTU21D;63946;51.986;5.930;2024-03-23T19:42:11;6.97;68.75
75357;HTU21D;63946;51.986;5.930;2024-03-23T19:44:37;6.95;68.83
75357;HTU21D;63946;51.986;5.930;2024-03-23T19:47:03;6.95;68.84
75357;HTU21D;63946;51.986;5.930;2024-03-23T19:49:29;6.90;68.91
75357;HTU21D;63946;51.986;5.930;2024-03-23T19:51:56;6.89;68.99
75357;HTU21D;63946;51.986;5.930;2024-03-23T19:54:22;6.88;69.13
75357;HTU21D;63946;51.986;5.930;2024-03-23T19:56:48;6.84;69.15
75357;HTU21D;63946;51.986;5.930;2024-03-23T19:59:14;6.80;69.28
75357;HTU21D;63946;51.986;5.930;2024-03-23T20:01:40;6.78;69.43
75357;HTU21D;63946;51.986;5.930;2024-03-23T20:04:06;6.76;69.47
75357;HTU21D;63946;51.986;5.930;2024-03-23T20:06:33;6.75;69.51
75357;HTU21D;63946;51.986;5.930;2024-03-23T20:08:59;6.75;69.49
75357;HTU21D;63946;51.986;5.930;2024-03-23T20:11:26;6.73;69.57
75357;HTU21D;63946;51.986;5.930;2024-03-23T20:13:52;6.73;69.65
75357;HTU21D;63946;51.986;5.930;2024-03-23T20:16:18;6.73;69.60
75357;HTU21D;63946;51.986;5.930;2024-03-23T20:18:44;6.72;69.62
75357;HTU21D;63946;51.986;5.930;2024-03-23T20:21:10;6.71;69.72
75357;HTU21D;63946;51.986;5.930;2024-03-23T20:23:36;6.71;69.78
75357;HTU21D;63946;51.986;5.930;2024-03-23T20:26:03;6.71;69.81
75357;HTU21D;63946;51.986;5.930;2024-03-23T20:28:30;6.70;69.83
75357;HTU21D;63946;51.986;5.930;2024-03-23T20:31:01;6.67;70.07
75357;HTU21D;63946;51.986;5.930;2024-03-23T20:33:27;6.64;70.11
75357;HTU21D;63946;51.986;5.930;2024-03-23T20:35:54;6.63;70.23
75357;HTU21D;63946;51.986;5.930;2024-03-23T20:38:21;6.63;70.19
75357;HTU21D;63946;51.986;5.930;2024-03-23T20:40:54;6.61;70.27
75357;HTU21D;63946;51.986;5.930;2024-03-23T20:43:20;6.59;70.23
75357;HTU21D;63946;51.986;5.930;2024-03-23T20:45:54;6.58;70.38
75357;HTU21D;63946;51.986;5.930;2024-03-23T20:48:21;6.55;70.41
75357;HTU21D;63946;51.986;5.930;2024-03-23T20:50:58;6.57;70.43
75357;HTU21D;63946;51.986;5.930;2024-03-23T20:53:25;6.55;70.45
75357;HTU21D;63946;51.986;5.930;2024-03-23T20:55:56;6.53;70.61
75357;HTU21D;63946;51.986;5.930;2024-03-23T20:58:23;6.51;70.56
75357;HTU21D;63946;51.986;5.930;2024-03-23T21:00:49;6.49;70.66
75357;HTU21D;63946;51.986;5.930;2024-03-23T21:03:16;6.50;70.63
75357;HTU21D;63946;51.986;5.930;2024-03-23T21:05:43;6.48;70.64
75357;HTU21D;63946;51.986;5.930;2024-03-23T21:08:11;6.46;70.74
75357;HTU21D;63946;51.986;5.930;2024-03-23T21:10:37;6.49;70.79
75357;HTU21D;63946;51.986;5.930;2024-03-23T21:13:03;6.48;70.86
75357;HTU21D;63946;51.986;5.930;2024-03-23T21:15:30;6.50;70.75
75357;HTU21D;63946;51.986;5.930;2024-03-23T21:17:56;6.50;70.74
75357;HTU21D;63946;51.986;5.930;2024-03-23T21:20:25;6.50;70.64